• Join FlightAware (Why Join?)
  • Login
  • US Flag 
03:25AM EDT


 

Airport Tracker/Info


-or-


 

Live Flight TrackerFlight Track Log ✈ AWE997 ✈ 27-Apr-2013 ✈ KORD - KPHL

Flight Track Log - Related Links

Times and Time Zones

All times are in EDT time to prevent confusion due to time zone crossing. See the AWE997 flight status page for this flight to view local times or setup timezone preferences in your user account.

Time Position Orientation Groundspeed Altitude Reporting Facility
EDT Latitude Longitude Course Direction KTS MPH feet Rate Location/Type
10:47AM 41.9333 -87.9167 90° East 172 198 2,500  Level Chicago TRACON
10:48AM 41.9167 -87.8667 114° Southeast 225 259 3,700 1,020 Climbing Chicago TRACON
10:50AM 41.9551 -87.4221 97° East  Level FlightAware Approximate
10:50AM 41.9478 -87.7294 73° East 252 290 5,000  Level Chicago Center
10:51AM 41.9427 -87.2634 95° East  Level FlightAware Approximate
10:51AM 41.9811 -87.6367 64° Northeast 277 319 5,900  Level Chicago Center
10:52AM 41.9333 -87.1045 90° East  Level FlightAware Approximate
10:52AM 42.0294 -87.5539 52° Northeast 284 327 9,000  Level Chicago Center
10:53AM 41.9667 -86.9454 90° East  Level FlightAware Approximate
10:53AM 42.0258 -87.4497 93° East 282 325 11,600  Level Chicago Center
10:54AM 42.0069 -87.3300 102° East 327 376 12,600 1,800 Climbing Chicago Center
10:55AM 41.9994 -87.1628 93° East 372 428 15,400 2,400 Climbing Chicago Center
10:56AM 41.9939 -87.0197 93° East 382 440 17,600 1,740 Climbing Chicago Center
10:57AM 41.9861 -86.8708 94° East 397 457 19,100 1,740 Climbing Chicago Center
10:58AM 41.9800 -86.7200 93° East 405 466 21,200 1,800 Climbing Chicago Center
10:59AM 41.9717 -86.5503 94° East 415 478 22,800 1,500 Climbing Chicago Center
11:00AM 41.9650 -86.3892 93° East 430 495 24,300 1,320 Climbing Chicago Center
11:01AM 41.9561 -86.2258 94° East 437 503 25,600 1,200 Climbing Chicago Center
11:02AM 41.9406 -86.0597 97° East 447 514 26,900 1,140 Climbing Chicago Center
11:03AM 41.9247 -85.8897 97° East 456 525 28,000 1,020 Climbing Chicago Center
11:04AM 41.9094 -85.7169 97° East 463 533 29,000 900 Climbing Chicago Center
11:05AM 41.8928 -85.5394 97° East 473 544 29,900 720 Climbing Chicago Center
11:06AM 41.8739 -85.3583 98° East 482 555 30,500 720 Climbing Chicago Center
11:07AM 41.8561 -85.1758 97° East 487 560 31,400 1,140 Climbing Chicago Center
11:08AM 41.8339 -84.9569 98° East 490 564 32,900 1,020 Climbing Chicago Center
11:09AM 41.8156 -84.7753 98° East 490 564 33,600 720 Climbing Chicago Center
11:10AM 41.7953 -84.5936 98° East 492 566 34,400 720 Climbing Chicago Center
11:11AM 41.7775 -84.3981 97° East 484 557 35,100 720 Climbing Cleveland Center
11:12AM 41.7753 -84.2142 91° East 489 563 35,900 720 Climbing Cleveland Center
11:13AM 41.7664 -84.0300 94° East 489 563 36,600 540 Climbing Cleveland Center
11:14AM 41.7281 -83.8469 106° East 494 568 37,000 180 Climbing Cleveland Center
11:15AM 41.6850 -83.6667 108° East 500 575 37,000  Level Cleveland Center
11:16AM 41.6439 -83.4869 107° East 500 575 37,000  Level Cleveland Center
11:17AM 41.6022 -83.3072 107° East 505 581 37,000  Level Cleveland Center
11:18AM 41.5586 -83.1222 107° East 505 581 37,000  Level Cleveland Center
11:19AM 41.5167 -82.9458 108° East 510 587 37,000  Level Cleveland Center
11:20AM 41.4781 -82.7839 108° East 510 587 37,000  Level Cleveland Center
11:21AM 41.4336 -82.5994 108° East 510 587 37,000  Level Cleveland Center
11:22AM 41.3906 -82.4236 108° East 510 587 37,000  Level Cleveland Center
11:23AM 41.3456 -82.2397 108° East 510 587 37,000  Level Cleveland Center
11:24AM 41.3042 -82.0619 107° East 505 581 37,000  Level Cleveland Center
11:25AM 41.2606 -81.8842 108° East 505 581 37,000  Level Cleveland Center
11:26AM 41.2164 -81.7039 108° East 505 581 37,000  Level Cleveland Center
11:27AM 41.1703 -81.5264 109° East 505 581 37,000  Level Cleveland Center
11:28AM 41.1214 -81.3439 110° East 511 588 37,000  Level Cleveland Center
11:29AM 41.0747 -81.1669 109° East 511 588 37,000  Level Cleveland Center
11:30AM 41.0317 -80.9878 108° East 511 588 37,000  Level Cleveland Center
11:31AM 40.9842 -80.8086 109° East 511 588 37,000  Level Cleveland Center
11:32AM 40.9386 -80.6297 109° East 511 588 37,000  Level Cleveland Center
11:33AM 40.8906 -80.4514 110° East 511 588 37,000  Level Cleveland Center
11:34AM 40.8006 -80.2950 127° Southeast 493 567 37,000  Level Cleveland Center
11:35AM 40.6961 -80.1942 144° Southeast 493 567 37,000  Level Cleveland Center
11:36AM 40.5853 -80.0828 143° Southeast 498 573 37,000  Level Cleveland Center
11:37AM 40.4739 -79.9389 135° Southeast 509 586 37,000  Level Cleveland Center
11:38AM 40.4394 -79.7564 104° East 480 552 37,100  Climbing Cleveland Center
11:39AM 40.4339 -79.5711 92° East 485 558 37,000 -60 Descending Cleveland Center
11:40AM 40.4258 -79.3858 93° East 495 570 37,000  Level Cleveland Center
11:41AM 40.4178 -79.2250 94° East 495 570 37,000 -360 Level Cleveland Center
11:42AM 40.4092 -79.0425 93° East 500 575 36,300 -840 Descending Cleveland Center
11:43AM 40.4022 -78.8628 93° East 500 575 35,400 -900 Descending Cleveland Center
11:44AM 40.3931 -78.6803 94° East 500 575 34,500 -960 Descending Cleveland Center
11:45AM 40.3836 -78.4978 94° East 500 575 33,500 -1,800 Descending Cleveland Center
11:46AM 40.3867 -78.3178 89° East 494 568 31,000 -3,180 Descending Cleveland Center
11:47AM 40.3886 -78.2300 88° East 498 573 28,700 -3,840 Descending New York Center
11:48AM 40.3892 -78.0556 90° East 493 567 25,200 -1,860 Descending New York Center
11:49AM 40.3783 -77.8908 95° East 478 550 25,000 -120 Descending New York Center
11:50AM 40.3633 -77.7231 97° East 466 536 25,000 -960 Level New York Center
11:51AM 40.3414 -77.5600 100° East 466 536 23,100 -2,160 Descending New York Center
11:52AM 40.3211 -77.4031 100° East 447 514 20,800 -2,460 Descending New York Center
11:53AM 40.2981 -77.2536 101° East 417 480 18,300 -1,440 Descending New York Center
11:54AM 40.2775 -77.0967 100° East 405 466 18,000 -300 Descending New York Center
11:55AM 40.2592 -76.9697 101° East 395 455 17,700 -1,440 Descending New York Center
11:56AM 40.2394 -76.8294 100° East 395 455 15,200 -2,340 Descending New York Center
11:57AM 40.2192 -76.6917 101° East 390 449 13,100 -2,100 Descending New York Center
11:58AM 40.2028 -76.5625 99° East 379 436 11,100 -1,140 Descending New York Center
11:59AM 40.1819 -76.4331 102° East 369 425 10,900 -120 Descending New York Center
12:00PM 40.1594 -76.2925 102° East 369 425 10,900  Level New York Center
12:01PM 40.1461 -76.1719 98° East 362 417 10,900  Level New York Center
12:02PM 40.1292 -76.0431 100° East 362 417 10,900 -480 Level New York Center
12:03PM 40.1092 -75.9275 103° East 344 396 10,000 -1,080 Descending New York Center
12:04PM 40.0517 -75.8583 137° Southeast 279 321 8,800 -1,440 Descending New York Center
12:05PM 39.9794 -75.7961 147° Southeast 279 321 7,200 -1,380 Descending New York Center
12:06PM 39.9300 -75.7303 134° Southeast 279 321 6,100 -780 Descending New York Center
12:07PM 39.8728 -75.6531 134° Southeast 279 321 5,700 -1,020 Descending New York Center
12:08PM 39.8256 -75.5875 133° Southeast 274 315 4,100 -1,260 Descending New York Center
12:09PM 39.8167 -75.5000 98° East 203 234 3,000 -960 Descending Philadelphia TRACON